Time;durP1;ratioP1;P1;durP2;ratioP2;P2;SDS_P1;SDS_P2;PMS_P1;PMS_P2;Temp;Humidity;BMP_temperature;BMP_pressure;BME280_temperature;BME280_humidity;BME280_pressure;Samples;Min_cycle;Max_cycle;Signal;HPM_P1;HPM_P2
2020/12/13 00:01:56;;;;;;;14.70;8.98;;;;;;;-2.44;96.89;100917.56;5094912;28;20079;-69
2020/12/13 00:04:43;;;;;;;15.55;9.18;;;;;;;-2.42;97.35;100912.44;5093081;28;20081;-72
2020/12/13 00:07:29;;;;;;;14.85;8.70;;;;;;;-2.41;96.81;100917.56;5094162;28;20040;-70
2020/12/13 00:10:17;;;;;;;17.48;9.05;;;;;;;-2.46;97.00;100914.19;5093753;28;20112;-72
2020/12/13 00:13:04;;;;;;;13.52;9.00;;;;;;;-2.46;97.25;100913.34;5094450;28;20075;-71
2020/12/13 00:15:50;;;;;;;14.32;9.32;;;;;;;-2.47;96.53;100914.19;5093079;28;20043;-73
2020/12/13 00:18:37;;;;;;;17.30;10.13;;;;;;;-2.48;96.01;100913.34;5093723;28;20083;-71
2020/12/13 00:21:26;;;;;;;15.02;9.90;;;;;;;-2.47;96.15;100920.19;5094574;28;20101;-69
2020/12/13 00:24:13;;;;;;;13.50;9.10;;;;;;;-2.50;95.99;100917.63;5091489;28;20387;-69
2020/12/13 00:26:59;;;;;;;16.60;9.27;;;;;;;-2.50;96.26;100921.91;5109415;28;20055;-70
2020/12/13 00:29:46;;;;;;;14.98;10.40;;;;;;;-2.53;96.67;100911.69;5090795;28;20052;-71
2020/12/13 00:32:33;;;;;;;15.15;9.32;;;;;;;-2.54;96.23;100917.66;5093900;28;20083;-68
2020/12/13 00:35:19;;;;;;;14.05;9.25;;;;;;;-2.60;96.14;100916.84;5091882;28;20079;-69
2020/12/13 00:38:06;;;;;;;14.35;8.93;;;;;;;-2.57;96.18;100909.13;5094011;28;20104;-69
2020/12/13 00:40:52;;;;;;;15.68;8.63;;;;;;;-2.57;95.89;100910.84;5092045;28;20586;-73
2020/12/13 00:43:39;;;;;;;16.27;9.65;;;;;;;-2.55;97.03;100913.41;5093736;28;20134;-70
2020/12/13 00:46:25;;;;;;;16.95;10.98;;;;;;;-2.53;96.33;100914.22;5094594;28;20051;-71
2020/12/13 00:49:12;;;;;;;15.50;9.10;;;;;;;-2.62;95.88;100908.31;5079904;28;20047;-71
2020/12/13 00:52:08;;;;;;;18.17;10.38;;;;;;;-2.58;95.94;100914.28;5080595;28;20075;-72
2020/12/13 00:54:55;;;;;;;15.80;8.73;;;;;;;-2.57;95.60;100919.38;5079653;28;20050;-68
2020/12/13 00:57:44;;;;;;;16.15;9.90;;;;;;;-2.57;96.06;100918.53;5078707;28;20039;-68
2020/12/13 01:00:31;;;;;;;17.50;10.07;;;;;;;-2.60;96.41;100918.56;5087002;28;20143;-71
2020/12/13 01:03:17;;;;;;;16.75;10.02;;;;;;;-2.68;95.57;100916.03;5090598;28;20813;-73
2020/12/13 01:06:04;;;;;;;17.88;9.80;;;;;;;-2.72;95.03;100919.47;5093941;28;20047;-69
2020/12/13 01:08:52;;;;;;;15.48;9.27;;;;;;;-2.68;94.83;100908.38;5106947;28;20047;-68
2020/12/13 01:11:39;;;;;;;15.65;9.55;;;;;;;-2.71;94.60;100913.50;5093186;28;20445;-71
2020/12/13 01:14:25;;;;;;;17.67;10.15;;;;;;;-2.74;95.73;100912.69;5093247;28;20081;-72
2020/12/13 01:17:12;;;;;;;16.83;10.27;;;;;;;-2.76;94.94;100911.84;5093455;28;20051;-72
2020/12/13 01:19:59;;;;;;;18.35;10.77;;;;;;;-2.79;95.63;100924.66;5093802;28;20533;-73
2020/12/13 01:22:46;;;;;;;17.88;10.40;;;;;;;-2.84;94.52;100917.88;5079647;28;20052;-70
2020/12/13 01:25:32;;;;;;;19.33;10.15;;;;;;;-2.92;94.45;100917.06;5093629;28;20091;-72
2020/12/13 01:28:19;;;;;;;19.25;10.80;;;;;;;-2.92;93.64;100916.22;5092688;28;20084;-69
2020/12/13 01:31:05;;;;;;;16.50;10.68;;;;;;;-2.96;94.71;100912.81;5094036;28;20047;-69
2020/12/13 01:33:52;;;;;;;16.15;10.13;;;;;;;-2.90;95.33;100925.56;5094050;28;20067;-70
2020/12/13 01:36:39;;;;;;;20.27;10.68;;;;;;;-2.98;93.96;100927.34;5079422;28;20052;-71
2020/12/13 01:39:26;;;;;;;18.05;10.10;;;;;;;-3.03;94.44;100925.66;5092041;28;20039;-69
2020/12/13 01:42:12;;;;;;;19.13;10.98;;;;;;;-3.06;94.21;100933.34;5107656;28;20051;-71
2020/12/13 01:44:59;;;;;;;19.10;11.95;;;;;;;-3.11;93.39;100930.81;5091257;28;20622;-71
2020/12/13 01:47:49;;;;;;;21.23;11.48;;;;;;;-3.10;93.90;100933.34;5093688;28;20050;-70
2020/12/13 01:53:26;;;;;;;21.10;11.57;;;;;;;-3.18;93.70;100937.69;5091255;28;20082;-71
2020/12/13 01:56:15;;;;;;;20.50;11.93;;;;;;;-3.25;93.35;100933.44;5091573;28;20064;-72
2020/12/13 01:59:02;;;;;;;19.27;11.05;;;;;;;-3.24;93.47;100932.56;5107596;28;20058;-71
2020/12/13 02:01:57;;;;;;;22.52;12.68;;;;;;;-3.21;94.50;100932.56;5088152;28;20527;-71
2020/12/13 02:04:46;;;;;;;23.67;11.93;;;;;;;-3.31;93.63;100924.94;5093316;28;20067;-71
2020/12/13 02:07:36;;;;;;;21.20;12.43;;;;;;;-3.40;92.94;100928.41;5090893;28;20071;-70
2020/12/13 02:10:22;;;;;;;23.98;12.68;;;;;;;-3.46;93.02;100926.72;5092549;28;20108;-72
2020/12/13 02:13:09;;;;;;;22.98;12.27;;;;;;;-3.50;92.83;100924.16;5092489;28;20050;-72
2020/12/13 02:16:01;;;;;;;25.08;12.70;;;;;;;-3.55;93.24;100931.84;5094226;28;20043;-72
2020/12/13 02:18:47;;;;;;;22.10;11.80;;;;;;;-3.63;93.17;100933.56;5094114;28;20104;-71
2020/12/13 02:21:34;;;;;;;24.33;12.82;;;;;;;-3.69;92.63;100925.94;5097220;28;20051;-70
2020/12/13 02:24:20;;;;;;;27.83;14.18;;;;;;;-3.71;92.79;100925.06;5080464;28;20051;-72
2020/12/13 02:27:08;;;;;;;24.08;12.55;;;;;;;-3.77;93.71;100935.31;5082980;28;20036;-69
2020/12/13 02:29:55;;;;;;;20.92;12.70;;;;;;;-3.83;93.34;100931.06;5096239;28;20051;-69
2020/12/13 02:32:42;;;;;;;25.48;12.75;;;;;;;-3.88;92.67;100933.66;5095770;28;20449;-68
2020/12/13 02:35:29;;;;;;;25.25;12.98;;;;;;;-3.87;93.06;100937.03;5096125;28;20130;-70
2020/12/13 02:38:15;;;;;;;24.70;13.63;;;;;;;-3.84;93.72;100933.66;5093671;28;20136;-70
2020/12/13 02:41:02;;;;;;;24.75;12.98;;;;;;;-3.89;93.70;100939.63;5091684;28;20506;-70
2020/12/13 02:43:48;;;;;;;22.70;12.80;;;;;;;-3.90;93.85;100939.59;5094651;28;21912;-72
2020/12/13 02:46:35;;;;;;;24.77;13.80;;;;;;;-3.86;93.63;100946.41;5096437;28;20139;-69
2020/12/13 02:49:21;;;;;;;21.17;13.05;;;;;;;-3.87;93.40;100945.56;5095730;28;20482;-69
2020/12/13 02:52:09;;;;;;;22.27;11.82;;;;;;;-3.90;92.46;100944.72;5096643;28;20043;-69
2020/12/13 02:54:55;;;;;;;24.00;13.35;;;;;;;-3.90;92.49;100949.81;5094922;28;20044;-72
2020/12/13 02:57:42;;;;;;;26.75;14.52;;;;;;;-3.95;93.04;100942.16;5082256;28;20077;-69
2020/12/13 03:00:28;;;;;;;24.08;14.35;;;;;;;-3.95;93.27;100948.97;5096208;28;20059;-69
2020/12/13 03:03:15;;;;;;;25.63;13.48;;;;;;;-3.97;92.60;100943.03;5095791;28;20139;-68
2020/12/13 03:06:01;;;;;;;23.27;12.77;;;;;;;-4.03;92.53;100945.59;5096036;28;20406;-70
2020/12/13 03:08:47;;;;;;;25.50;13.75;;;;;;;-4.10;93.45;100949.84;5095222;28;20039;-70
2020/12/13 03:11:34;;;;;;;24.58;14.02;;;;;;;-4.14;92.63;100951.53;5095935;28;20082;-72
2020/12/13 03:14:21;;;;;;;22.08;11.40;;;;;;;-4.15;93.08;100944.75;5093077;28;20051;-68
2020/12/13 03:17:07;;;;;;;24.52;13.77;;;;;;;-4.23;93.13;100946.44;5095943;28;20073;-72
2020/12/13 03:19:55;;;;;;;24.02;12.52;;;;;;;-4.31;92.94;100942.22;5095695;28;20696;-68
2020/12/13 03:22:42;;;;;;;24.10;13.40;;;;;;;-4.33;92.70;100947.28;5095503;28;20052;-69
2020/12/13 03:25:28;;;;;;;29.02;13.32;;;;;;;-4.39;92.91;100945.59;5095226;28;20203;-71
2020/12/13 03:28:14;;;;;;;21.67;12.88;;;;;;;-4.44;92.32;100937.09;5094995;28;20048;-69
2020/12/13 03:31:01;;;;;;;25.77;12.32;;;;;;;-4.40;92.42;100945.59;5095083;28;20052;-72
2020/12/13 03:33:48;;;;;;;24.05;12.43;;;;;;;-4.40;92.93;100938.78;5095274;28;20048;-71
2020/12/13 03:36:34;;;;;;;23.63;13.25;;;;;;;-4.36;93.27;100947.31;5095159;28;20602;-71
2020/12/13 03:39:20;;;;;;;28.23;14.75;;;;;;;-4.33;93.27;100947.28;5094968;28;20075;-69
2020/12/13 03:42:07;;;;;;;23.63;12.20;;;;;;;-4.34;92.81;100945.59;5095163;28;20043;-70
2020/12/13 03:44:55;;;;;;;21.42;12.95;;;;;;;-4.31;93.34;100942.22;5094662;28;20052;-69
2020/12/13 03:47:41;;;;;;;25.23;13.27;;;;;;;-4.32;92.77;100943.03;5094342;28;20600;-69
2020/12/13 03:50:38;;;;;;;24.08;12.93;;;;;;;-4.33;92.76;100946.44;5089773;28;20051;-68
2020/12/13 03:53:24;;;;;;;24.15;13.02;;;;;;;-4.40;92.60;100943.06;5092857;28;20054;-69
2020/12/13 03:56:11;;;;;;;24.02;12.68;;;;;;;-4.42;93.06;100942.19;5095022;28;20051;-69
2020/12/13 03:58:58;;;;;;;24.27;13.13;;;;;;;-4.51;93.32;100945.59;5094419;28;20129;-69
2020/12/13 04:01:44;;;;;;;24.58;12.73;;;;;;;-4.46;93.16;100937.94;5095206;28;20079;-68
2020/12/13 04:04:31;;;;;;;23.05;13.18;;;;;;;-4.47;92.99;100946.44;5092864;28;20055;-69
2020/12/13 04:07:18;;;;;;;24.95;12.85;;;;;;;-4.48;93.10;100945.59;5095186;28;20056;-68
2020/12/13 04:10:05;;;;;;;25.92;12.65;;;;;;;-4.52;92.81;100945.59;5093844;28;20047;-71
2020/12/13 04:12:51;;;;;;;21.33;12.23;;;;;;;-4.56;92.61;100941.31;5094907;28;20051;-70
2020/12/13 04:15:38;;;;;;;21.33;12.75;;;;;;;-4.66;92.41;100951.50;5094895;28;20049;-70
2020/12/13 04:18:25;;;;;;;23.33;12.15;;;;;;;-4.69;92.86;100956.63;5109840;28;20058;-69
2020/12/13 04:21:11;;;;;;;24.95;12.57;;;;;;;-4.72;93.09;100948.97;5092641;28;20082;-70
2020/12/13 04:23:57;;;;;;;22.17;13.40;;;;;;;-4.75;92.32;100951.50;5094447;28;20101;-71
2020/12/13 04:26:45;;;;;;;20.83;12.05;;;;;;;-4.84;92.64;100948.97;5094513;28;20792;-71
2020/12/13 04:29:31;;;;;;;26.40;11.30;;;;;;;-4.90;92.74;100947.22;5094409;28;20069;-69
2020/12/13 04:32:18;;;;;;;18.80;10.35;;;;;;;-4.87;92.74;100951.50;5093522;28;20104;-70
2020/12/13 04:35:05;;;;;;;19.33;10.95;;;;;;;-4.93;92.43;100947.22;5092403;28;20091;-71
2020/12/13 04:37:52;;;;;;;19.75;9.70;;;;;;;-4.91;92.38;100954.88;5094389;28;20063;-72
2020/12/13 04:40:38;;;;;;;19.95;10.20;;;;;;;-4.98;92.57;100955.72;5094353;28;20422;-71
2020/12/13 04:43:25;;;;;;;18.67;9.43;;;;;;;-4.97;92.43;100958.28;5094249;28;20064;-70
2020/12/13 04:46:12;;;;;;;20.27;10.40;;;;;;;-4.97;93.43;100955.72;5106298;28;20086;-68
2020/12/13 04:48:59;;;;;;;16.50;9.20;;;;;;;-4.93;92.69;100957.44;5093469;22;21363;-72
2020/12/13 04:51:50;;;;;;;19.73;9.88;;;;;;;-4.97;92.76;100954.88;5025913;28;20050;-70
2020/12/13 04:54:37;;;;;;;18.15;9.40;;;;;;;-4.95;93.22;100960.81;5012165;28;20462;-70
2020/12/13 04:57:23;;;;;;;16.33;9.18;;;;;;;-4.89;93.32;100963.38;5017858;28;20049;-72
2020/12/13 05:00:12;;;;;;;16.27;8.60;;;;;;;-4.84;93.41;100958.28;5015190;28;20132;-69
2020/12/13 05:02:58;;;;;;;18.95;9.65;;;;;;;-4.82;93.45;100964.25;5000627;28;20840;-71
2020/12/13 05:05:46;;;;;;;18.73;9.20;;;;;;;-4.79;93.60;100965.13;5001122;28;20112;-69
2020/12/13 05:08:32;;;;;;;22.05;8.88;;;;;;;-4.77;93.57;100968.53;5015797;28;20042;-70
2020/12/13 05:11:19;;;;;;;16.23;8.55;;;;;;;-4.86;93.24;100967.66;5002771;28;20046;-70
2020/12/13 05:14:06;;;;;;;17.55;8.48;;;;;;;-4.83;93.09;100971.06;5014191;28;20143;-71
2020/12/13 05:17:10;;;;;;;14.85;7.80;;;;;;;-4.95;92.47;100964.22;5000479;28;20089;-71
2020/12/13 05:19:57;;;;;;;14.70;8.32;;;;;;;-4.93;93.00;100972.75;5005679;28;20045;-72
2020/12/13 05:22:43;;;;;;;15.20;8.38;;;;;;;-4.88;92.85;100967.66;4996577;28;20058;-72
2020/12/13 05:25:35;;;;;;;18.27;9.52;;;;;;;-4.90;92.52;100967.63;5000297;28;20051;-72
2020/12/13 05:28:23;;;;;;;16.88;8.88;;;;;;;-4.91;92.92;100968.47;5009076;28;20081;-73
2020/12/13 05:31:12;;;;;;;19.95;8.95;;;;;;;-4.91;92.77;100968.47;5010456;28;20389;-72
2020/12/13 05:34:04;;;;;;;15.73;9.05;;;;;;;-4.86;93.20;100973.59;5006879;28;20050;-71
2020/12/13 05:36:51;;;;;;;15.15;8.63;;;;;;;-4.85;93.29;100975.28;5012874;28;20477;-69
2020/12/13 05:39:37;;;;;;;16.63;8.93;;;;;;;-4.87;93.07;100978.69;5010424;28;20145;-72
2020/12/13 05:42:26;;;;;;;18.80;8.70;;;;;;;-4.85;93.49;100977.84;5016150;28;20503;-72
2020/12/13 05:45:46;;;;;;;17.75;8.50;;;;;;;-4.85;93.10;100977.00;5012762;28;20107;-70
2020/12/13 05:51:39;;;;;;;18.15;8.48;;;;;;;-4.88;93.53;100975.31;5013132;28;20500;-71
2020/12/13 05:54:26;;;;;;;14.75;9.32;;;;;;;-4.88;92.93;100975.31;5016592;28;20096;-72
2020/12/13 05:57:13;;;;;;;14.40;7.88;;;;;;;-4.85;93.05;100974.44;5013258;28;20049;-73
2020/12/13 06:00:00;;;;;;;16.75;8.50;;;;;;;-4.80;93.08;100978.69;5022860;28;20045;-72
2020/12/13 06:02:49;;;;;;;18.55;8.40;;;;;;;-4.78;93.64;100977.03;5023072;28;20488;-70
2020/12/13 06:05:41;;;;;;;14.13;8.10;;;;;;;-4.77;93.68;100971.06;5014873;28;20053;-70
2020/12/13 06:08:45;;;;;;;15.88;8.80;;;;;;;-4.74;93.21;100978.75;5012105;28;20046;-69
2020/12/13 06:11:49;;;;;;;17.60;8.60;;;;;;;-4.75;93.61;100977.00;5034033;28;20045;-69
2020/12/13 06:14:37;;;;;;;20.42;9.32;;;;;;;-4.79;93.36;100975.31;5035206;28;20057;-71
2020/12/13 06:17:25;;;;;;;19.13;9.77;;;;;;;-4.80;92.90;100981.25;5022618;28;20045;-71
2020/12/13 06:20:12;;;;;;;17.38;9.93;;;;;;;-4.87;92.74;100976.16;5005634;28;20042;-70
2020/12/13 06:23:00;;;;;;;15.10;9.02;;;;;;;-4.91;92.95;100968.47;5005543;28;20042;-73
2020/12/13 06:25:46;;;;;;;20.17;10.45;;;;;;;-4.96;92.82;100966.78;5003059;28;20049;-69
2020/12/13 06:28:33;;;;;;;20.85;9.35;;;;;;;-4.99;93.26;100964.19;5017088;28;20050;-72
2020/12/13 06:31:20;;;;;;;18.10;9.05;;;;;;;-5.09;93.00;100976.06;5005484;28;20046;-71
2020/12/13 06:34:08;;;;;;;20.90;10.85;;;;;;;-5.16;93.39;100971.81;5016022;28;20389;-74
2020/12/13 06:36:57;;;;;;;16.25;9.35;;;;;;;-5.24;92.93;100976.03;5022652;28;20049;-68
2020/12/13 06:39:44;;;;;;;14.60;7.85;;;;;;;-5.26;93.25;100975.16;5010752;28;20064;-69
2020/12/13 06:42:35;;;;;;;17.00;9.40;;;;;;;-5.28;93.44;100979.41;5006518;28;20562;-69
2020/12/13 06:45:24;;;;;;;17.10;7.57;;;;;;;-5.35;93.59;100975.13;5032921;28;20045;-69
2020/12/13 06:48:13;;;;;;;15.85;7.63;;;;;;;-5.46;93.41;100975.06;5035148;28;20092;-71
2020/12/13 06:50:59;;;;;;;13.20;7.35;;;;;;;-5.49;92.89;100977.59;5034912;28;20103;-69
2020/12/13 06:53:50;;;;;;;15.43;8.02;;;;;;;-5.53;93.10;100975.88;5013328;28;20419;-69
2020/12/13 06:56:38;;;;;;;16.80;7.57;;;;;;;-5.61;93.07;100980.06;5022935;28;20108;-70
2020/12/13 06:59:24;;;;;;;15.52;7.35;;;;;;;-5.60;93.10;100981.78;5022605;28;20045;-70
2020/12/13 07:02:44;;;;;;;15.77;7.85;;;;;;;-5.63;93.60;100980.06;5028166;28;20174;-69
2020/12/13 07:05:43;;;;;;;14.65;7.18;;;;;;;-5.66;93.38;100982.59;5019493;28;20065;-69
2020/12/13 07:08:31;;;;;;;16.15;8.18;;;;;;;-5.69;93.51;100992.78;5019600;28;20041;-70
2020/12/13 07:11:18;;;;;;;15.95;7.75;;;;;;;-5.75;93.09;100985.94;5000078;28;20068;-69
2020/12/13 07:14:08;;;;;;;15.15;7.28;;;;;;;-5.76;92.78;100994.41;5004602;28;20107;-70
2020/12/13 07:17:12;;;;;;;11.85;6.90;;;;;;;-5.70;92.93;100991.94;4999918;28;20054;-70
2020/12/13 07:20:00;;;;;;;15.82;7.35;;;;;;;-5.64;93.60;100982.63;5015376;28;20041;-71
2020/12/13 07:22:47;;;;;;;14.80;7.90;;;;;;;-5.63;93.71;100986.88;5019460;28;20063;-70
2020/12/13 07:25:33;;;;;;;14.45;7.57;;;;;;;-5.60;92.90;100986.88;5009384;28;20046;-69
2020/12/13 07:28:22;;;;;;;14.10;7.53;;;;;;;-5.63;93.07;100989.41;5009548;28;20049;-71
2020/12/13 07:31:12;;;;;;;14.57;7.93;;;;;;;-5.70;92.30;100991.94;5009370;28;20054;-72
2020/12/13 07:33:59;;;;;;;13.52;7.15;;;;;;;-5.63;92.29;100989.41;5012232;28;20054;-69
2020/12/13 07:36:46;;;;;;;14.95;7.85;;;;;;;-5.61;92.69;100995.38;5011914;28;20508;-72
2020/12/13 07:39:33;;;;;;;12.23;6.95;;;;;;;-5.60;92.63;100995.41;5017740;28;20077;-71
2020/12/13 07:42:19;;;;;;;16.00;8.02;;;;;;;-5.64;92.14;101003.84;4999331;28;20046;-69
2020/12/13 07:45:06;;;;;;;14.60;7.50;;;;;;;-5.72;92.53;100995.31;5001274;28;20452;-73
2020/12/13 07:48:03;;;;;;;13.98;7.70;;;;;;;-5.69;91.89;101002.97;5005973;28;20057;-69
2020/12/13 07:50:50;;;;;;;13.52;7.00;;;;;;;-5.66;92.57;101003.81;5017532;28;20382;-69
2020/12/13 07:53:36;;;;;;;12.85;7.68;;;;;;;-5.59;92.97;101008.97;5018079;28;20076;-70
2020/12/13 07:56:26;;;;;;;13.27;7.07;;;;;;;-5.58;92.61;100998.78;5032421;28;20046;-71
2020/12/13 07:59:18;;;;;;;13.70;7.82;;;;;;;-5.54;92.44;101005.59;5018111;28;20135;-69
2020/12/13 08:02:07;;;;;;;15.63;7.47;;;;;;;-5.59;92.36;101001.34;5032503;28;20160;-71
2020/12/13 08:04:53;;;;;;;17.25;7.45;;;;;;;-5.54;92.09;101007.31;5030833;28;20068;-71
2020/12/13 08:07:40;;;;;;;14.75;6.47;;;;;;;-5.55;92.28;101003.91;5015919;28;20060;-69
2020/12/13 08:10:30;;;;;;;12.00;6.38;;;;;;;-5.54;92.42;101007.31;5016490;28;20053;-72
2020/12/13 08:13:16;;;;;;;13.02;6.97;;;;;;;-5.58;91.17;101006.44;4999093;28;20096;-70
2020/12/13 08:16:04;;;;;;;14.43;6.43;;;;;;;-5.57;91.91;101003.03;5018193;28;20081;-69
2020/12/13 08:18:53;;;;;;;13.00;7.10;;;;;;;-5.67;91.35;101017.41;5018110;28;20490;-69
2020/12/13 08:21:57;;;;;;;12.25;6.50;;;;;;;-5.64;91.39;101013.19;5018169;28;20045;-71
2020/12/13 08:24:56;;;;;;;14.15;7.07;;;;;;;-5.69;91.76;101008.06;5017946;28;20045;-69
2020/12/13 08:27:43;;;;;;;12.73;7.05;;;;;;;-5.74;91.73;101009.75;5017862;28;20045;-71
2020/12/13 08:30:30;;;;;;;12.68;6.60;;;;;;;-5.77;91.89;101005.47;5028696;28;20091;-70
2020/12/13 08:33:17;;;;;;;14.65;6.82;;;;;;;-5.74;92.10;100997.84;5014517;28;20049;-69
2020/12/13 08:36:16;;;;;;;13.02;6.85;;;;;;;-5.70;92.06;101006.34;5013791;28;20049;-69
2020/12/13 08:39:09;;;;;;;14.23;6.85;;;;;;;-5.75;91.85;101001.22;5014883;28;20044;-71
2020/12/13 08:41:58;;;;;;;11.27;6.47;;;;;;;-5.76;92.24;100994.41;5000881;28;20092;-70
2020/12/13 08:44:45;;;;;;;11.40;6.95;;;;;;;-5.70;92.03;100997.03;5004623;28;20056;-70
2020/12/13 08:47:32;;;;;;;14.13;7.20;;;;;;;-5.68;92.44;100992.78;5011171;28;20148;-69
2020/12/13 08:50:19;;;;;;;13.18;7.68;;;;;;;-5.73;92.11;100994.44;5013592;28;20053;-69
2020/12/13 08:53:38;;;;;;;13.98;7.63;;;;;;;-5.69;91.83;100997.88;4996562;28;20058;-71
2020/12/13 08:56:36;;;;;;;13.57;7.63;;;;;;;-5.75;91.79;100993.56;5005694;28;20515;-70
2020/12/13 08:59:23;;;;;;;15.73;8.70;;;;;;;-5.75;92.30;100997.81;5014594;28;20053;-71
2020/12/13 09:02:09;;;;;;;14.43;7.35;;;;;;;-5.82;92.44;100988.44;5013036;28;20057;-70
2020/12/13 09:04:57;;;;;;;15.98;8.38;;;;;;;-5.77;92.33;100995.28;5010658;28;20053;-70
2020/12/13 09:07:43;;;;;;;12.90;7.55;;;;;;;-5.76;92.31;100996.97;5011587;28;20444;-69
2020/12/13 09:10:38;;;;;;;12.57;7.20;;;;;;;-5.70;92.75;100999.56;5021661;28;20089;-69
2020/12/13 09:13:24;;;;;;;14.00;7.82;;;;;;;-5.66;92.38;100998.72;5010585;28;20060;-70
2020/12/13 09:16:24;;;;;;;14.15;6.88;;;;;;;-5.61;91.96;100996.22;5013169;28;20079;-70
2020/12/13 09:19:13;;;;;;;14.10;7.63;;;;;;;-5.59;91.92;100991.16;5014773;28;20471;-70
2020/12/13 09:22:01;;;;;;;14.35;7.40;;;;;;;-5.58;92.26;100996.25;4999001;28;20057;-70
2020/12/13 09:24:48;;;;;;;14.13;7.45;;;;;;;-5.56;91.74;100994.53;5013420;28;20476;-70
2020/12/13 09:27:35;;;;;;;17.35;7.68;;;;;;;-5.53;92.20;101002.22;5010392;28;20096;-70
2020/12/13 09:30:21;;;;;;;14.25;7.93;;;;;;;-5.57;91.65;100994.53;5001422;28;20107;-71
2020/12/13 09:33:08;;;;;;;15.90;8.68;;;;;;;-5.56;92.08;100997.09;5012324;28;20555;-69
2020/12/13 09:35:56;;;;;;;13.43;8.27;;;;;;;-5.53;91.98;100993.72;5028065;28;20096;-69
2020/12/13 09:38:43;;;;;;;14.50;8.50;;;;;;;-5.50;91.92;100993.75;5027647;28;20047;-72
2020/12/13 09:41:29;;;;;;;12.23;7.45;;;;;;;-5.48;91.86;100992.03;5006097;28;20099;-72
2020/12/13 09:44:16;;;;;;;13.10;7.93;;;;;;;-5.53;91.30;100991.16;5004543;28;20148;-72
2020/12/13 09:47:03;;;;;;;16.92;8.98;;;;;;;-5.53;91.58;100988.63;5005911;28;20172;-70
2020/12/13 09:49:49;;;;;;;14.18;8.00;;;;;;;-5.65;91.23;100999.56;4996172;28;20053;-69
2020/12/13 09:52:36;;;;;;;16.70;8.30;;;;;;;-5.65;91.85;100991.94;4998482;28;20099;-68
2020/12/13 09:55:24;;;;;;;16.83;8.55;;;;;;;-5.70;91.69;100985.97;5009262;28;20550;-70
2020/12/13 09:58:10;;;;;;;14.50;7.43;;;;;;;-5.70;91.72;100984.28;5016444;28;20592;-71
2020/12/13 10:00:57;;;;;;;11.60;7.03;;;;;;;-5.69;92.24;100993.63;5016242;28;20495;-69
2020/12/13 10:03:47;;;;;;;16.30;8.73;;;;;;;-5.61;92.52;100996.22;5016875;28;20515;-69
2020/12/13 10:09:29;;;;;;;13.75;7.60;;;;;;;-5.57;92.47;100984.34;5002384;28;20045;-71
2020/12/13 10:12:15;;;;;;;14.07;6.78;;;;;;;-5.59;91.92;100984.34;5014187;28;20466;-72
2020/12/13 10:15:02;;;;;;;12.45;6.70;;;;;;;-5.58;91.61;100982.66;5006465;28;20046;-71
2020/12/13 10:17:49;;;;;;;11.25;6.88;;;;;;;-5.63;91.49;100986.88;5011458;28;20045;-69
2020/12/13 10:20:40;;;;;;;11.95;7.00;;;;;;;-5.64;91.50;100993.66;5009816;28;20127;-70
2020/12/13 10:23:27;;;;;;;12.57;7.13;;;;;;;-5.67;91.42;100988.53;5013146;28;20061;-70
2020/12/13 10:26:13;;;;;;;14.27;7.50;;;;;;;-5.67;92.24;100989.38;4996446;28;20054;-68
2020/12/13 10:29:00;;;;;;;12.68;6.97;;;;;;;-5.61;92.29;100990.25;4996731;28;20042;-71
2020/12/13 10:31:46;;;;;;;14.23;7.50;;;;;;;-5.62;92.28;100986.88;5013108;28;20108;-73
2020/12/13 10:34:33;;;;;;;13.50;7.13;;;;;;;-5.61;91.83;100980.94;4998218;28;20054;-69
2020/12/13 10:37:19;;;;;;;14.70;7.25;;;;;;;-5.60;91.67;100985.19;5000031;28;20049;-70
2020/12/13 10:40:06;;;;;;;13.50;7.13;;;;;;;-5.73;91.71;100981.72;4999928;28;20045;-71
2020/12/13 10:42:52;;;;;;;15.25;7.93;;;;;;;-5.63;92.03;100991.97;4999699;28;20104;-68
2020/12/13 10:45:39;;;;;;;14.10;6.78;;;;;;;-5.62;92.27;100986.03;5011492;28;20053;-68
2020/12/13 10:48:38;;;;;;;15.02;7.38;;;;;;;-5.64;92.11;100987.72;5000128;28;20046;-70
2020/12/13 10:51:25;;;;;;;16.13;7.70;;;;;;;-5.66;91.68;100983.44;5019860;28;20111;-72
2020/12/13 10:54:11;;;;;;;12.23;7.40;;;;;;;-5.64;91.99;100985.19;5010831;28;20056;-69
2020/12/13 10:56:58;;;;;;;16.70;7.10;;;;;;;-5.73;90.82;100974.06;5003510;28;20107;-70
2020/12/13 10:59:45;;;;;;;14.23;7.05;;;;;;;-5.68;92.14;100985.13;5019592;28;20495;-71
2020/12/13 11:02:32;;;;;;;14.10;7.90;;;;;;;-5.80;91.56;100989.28;5019906;28;20103;-70
2020/12/13 11:05:18;;;;;;;13.38;7.20;;;;;;;-5.70;91.93;100983.41;5019035;28;20042;-69
2020/12/13 11:08:05;;;;;;;13.68;6.68;;;;;;;-5.70;91.43;100985.97;5002828;28;20042;-70
2020/12/13 11:10:52;;;;;;;12.25;6.93;;;;;;;-5.71;91.88;100985.13;5011859;28;20062;-68
2020/12/13 11:13:39;;;;;;;13.15;7.30;;;;;;;-5.70;91.26;100991.94;5015247;28;20496;-71
2020/12/13 11:16:25;;;;;;;10.50;5.57;;;;;;;-5.66;91.33;100990.25;5015645;28;20054;-69
2020/12/13 11:19:12;;;;;;;17.02;7.97;;;;;;;-5.72;91.64;100993.59;5019042;28;20049;-71
2020/12/13 11:21:59;;;;;;;10.88;7.07;;;;;;;-5.74;91.43;100997.00;5018580;28;20176;-69
2020/12/13 11:24:45;;;;;;;13.18;7.28;;;;;;;-5.74;91.74;100994.44;5001128;28;20389;-69
2020/12/13 11:27:33;;;;;;;9.98;5.55;;;;;;;-5.73;91.68;100991.06;4999530;28;20614;-69
2020/12/13 11:30:19;;;;;;;13.00;6.55;;;;;;;-5.77;91.81;101000.38;5017434;28;20112;-68
2020/12/13 11:33:06;;;;;;;14.00;6.13;;;;;;;-5.73;91.84;101006.34;5013382;28;20135;-69
2020/12/13 11:35:52;;;;;;;11.00;6.55;;;;;;;-5.75;91.73;100996.13;5016889;28;20045;-69
2020/12/13 11:38:38;;;;;;;11.43;6.75;;;;;;;-5.74;91.72;101000.41;5009941;28;20042;-70
2020/12/13 11:41:27;;;;;;;11.27;6.45;;;;;;;-5.78;90.49;100988.47;5016742;28;20054;-70
2020/12/13 11:44:14;;;;;;;11.05;6.22;;;;;;;-5.79;90.59;100996.09;5004503;28;20481;-70
2020/12/13 11:47:01;;;;;;;11.38;6.68;;;;;;;-5.81;91.48;100998.63;5006387;28;20050;-69
2020/12/13 11:49:47;;;;;;;11.68;5.85;;;;;;;-5.85;91.33;100998.59;5011196;28;20088;-70
2020/12/13 11:52:34;;;;;;;9.07;5.80;;;;;;;-5.85;91.44;100993.50;5006148;28;20126;-69
2020/12/13 11:55:20;;;;;;;10.65;6.20;;;;;;;-5.86;91.60;100989.25;5012579;28;20496;-70
2020/12/13 11:58:07;;;;;;;12.88;6.50;;;;;;;-5.83;92.05;100997.78;5015155;28;20461;-70
2020/12/13 12:00:53;;;;;;;13.75;7.50;;;;;;;-5.86;91.63;100990.13;5001336;28;20056;-69
2020/12/13 12:03:40;;;;;;;11.13;5.82;;;;;;;-5.88;91.32;100991.81;5017781;28;20136;-70
2020/12/13 12:06:26;;;;;;;10.05;5.97;;;;;;;-5.84;91.17;100992.66;4999063;28;20104;-71
2020/12/13 12:09:20;;;;;;;14.93;7.47;;;;;;;-5.86;91.73;100984.16;5002559;28;20055;-70
2020/12/13 12:12:07;;;;;;;12.18;6.55;;;;;;;-5.90;91.06;100987.53;5004489;28;20097;-71
2020/12/13 12:14:53;;;;;;;10.95;7.20;;;;;;;-5.89;91.18;100986.69;5011212;28;20450;-69
2020/12/13 12:17:40;;;;;;;12.80;7.20;;;;;;;-5.94;90.84;100982.44;5011399;28;20107;-69
2020/12/13 12:20:27;;;;;;;12.38;7.22;;;;;;;-5.94;91.26;100982.44;5010144;28;20092;-70
2020/12/13 12:23:13;;;;;;;13.70;6.82;;;;;;;-5.93;90.85;100983.31;4998556;28;20508;-70
2020/12/13 12:25:59;;;;;;;10.55;6.20;;;;;;;-5.99;90.41;100989.19;5000537;28;20077;-71
2020/12/13 12:28:49;;;;;;;11.32;6.43;;;;;;;-5.98;90.93;100985.84;4997727;28;20107;-69
2020/12/13 12:31:36;;;;;;;11.30;6.30;;;;;;;-6.00;90.98;100977.31;4997944;28;20385;-70
2020/12/13 12:34:23;;;;;;;10.70;5.45;;;;;;;-5.97;91.66;100982.44;5017635;28;20066;-70
2020/12/13 12:37:09;;;;;;;9.63;5.47;;;;;;;-5.97;91.11;100974.81;5003695;28;20089;-70
2020/12/13 12:39:56;;;;;;;11.30;6.03;;;;;;;-6.01;91.09;100983.25;4997948;28;20050;-69
2020/12/13 12:42:42;;;;;;;9.60;5.78;;;;;;;-6.01;91.66;100977.31;5012229;28;20492;-69
2020/12/13 12:45:29;;;;;;;10.63;6.05;;;;;;;-5.98;91.82;100974.78;5008427;28;20054;-70
2020/12/13 12:48:16;;;;;;;12.20;6.13;;;;;;;-5.97;91.68;100976.50;5009196;28;20134;-74
2020/12/13 12:51:08;;;;;;;9.70;5.65;;;;;;;-5.91;92.13;100976.50;5013397;28;20049;-71
2020/12/13 12:53:56;;;;;;;10.23;6.45;;;;;;;-5.88;92.18;100978.22;5002848;28;20050;-68
2020/12/13 12:56:42;;;;;;;13.27;7.20;;;;;;;-5.86;91.57;100979.06;5015369;28;20076;-71
2020/12/13 13:02:22;;;;;;;12.55;6.47;;;;;;;-5.91;91.47;100973.13;5029573;28;20108;-71